Terminal Aerodrome Forecast
Issued by NWS Mt. Holly, NJ

Home | Current Version | Previous Version | Text Only | Print | Product List | Glossary On
Versions: 1 2 3 4 5 6 7 8 9 10 11 12 13 14 15 16 17 18 19 20 21 22 23 24 25 26 27 28 29
985
FTUS41 KPHI 200524
TAFPHL
TAF
KPHL 200524Z 2006/2112 27006KT P6SM FEW100
     FM201500 33009KT P6SM SCT250
     FM210400 26004KT P6SM SKC=

USA.gov is the U.S. government's official web portal to all federal, state and local government web resources and services.